Aérodrome :
LOGIN :

S'inscrire | Disclaimer

   EN    FR    IT 

 










Légende :    VFR   VFR Marginal   IFR   IFR Intensif   IFR Très Intensif
Visi : 
Plafond : 
>= 8 km
>= 3000ft
5 à 8 km
1000 à 3000 ft
1500m à 5 km
500 à 1000 ft
800 à 1500m
200 à 500 ft
< 800m
< 200 ft
Symboles :   Orages  Brouillard  Fortes neiges  Fortes précipitations  Vent > 20 kt
SIGMETs :   Divers  Orages  Givrage  Turbulence  Onde Orograph.  Cendres Volcan.







- Altitude de l'aérodrome : 37 ft


EHVL - Vlieland Heliport

DERNIER METAR :
  • 231825Z AUTO 30025KT 7000 HZ SCT016 BKN019 OVC024 15/12 Q1020 WHT

METARs EXPIRÉS :
  • 231755Z AUTO 30025KT 7000 HZ SCT018 OVC021 15/12 Q1020 WHT
  • 231730Z AUTO 30028KT 7000 HZ SCT016 BKN019 OVC024 15/12 Q1020 WHT
  • 231714Z AUTO 30028KT 8000 HZ SCT016 BKN020 OVC024 15/11 Q1020 WHT
  • 231655Z AUTO 30027KT 8000 HZ SCT016 BKN020 OVC023 14/11 Q1020 WHT
  • 231625Z AUTO 30028KT 8000 HZ BKN017 OVC021 14/11 Q1020 WHT
  • 231555Z AUTO 30028KT 7000 HZ FEW017 BKN021 OVC024 14/11 Q1020 WHT

Prévision TAF périmée.
Pas de NOTAMs connus pour ce terrain.



MET'MAP, la Météo Aéronautique d'un coup d'oeil ! - Copyright ORBIFLY Décembre 2007 - Disclaimer

ORBIFLY MET'MAP TEAM :

Programmation & Développement : Alexandra Zaïnal
Conception & Développement : Baudouin d'Aumeries
Co-Programmation & Développement : Marc-Olivier Méhu
Soutien technique & logistique : Manuel Goepfert

Contact : metmap@orbifly.com




SOURCES & CREDITS :

   NOAA